Terminal Aerodrome Forecast
Issued by NWS North Platte, NE

Home | Current Version | Previous Version | Text Only | Print | Product List | Glossary On
Versions: 1 2 3 4 5 6 7 8 9 10 11 12 13 14 15 16
837
FTUS43 KLBF 191120
TAFVTN
TAF
KVTN 191120Z 1912/2012 01016G22KT P6SM OVC030
     FM191900 01012KT 3SM -SN OVC025
     FM192300 02011G17KT 2SM -SN OVC020
     FM200100 02011G17KT 1SM -SN OVC015
     FM200600 33011KT 3SM -SN BKN040=

USA.gov is the U.S. government's official web portal to all federal, state and local government web resources and services.